sensor_id;sensor_type;location;lat;lon;timestamp;pressure;altitude;pressure_sealevel;temperature;humidity
74441;BME280;62870;54.692;25.284;2022-09-09T00:04:35;1035.6;;;10.9;55.5
74441;BME280;62870;54.692;25.284;2022-09-09T00:08:53;1035.5;;;10.9;55.5
74441;BME280;62870;54.692;25.284;2022-09-09T00:14:00;1035.4;;;10.7;56
74441;BME280;62870;54.692;25.284;2022-09-09T00:18:30;1035.4;;;10.7;56.5
74441;BME280;62870;54.692;25.284;2022-09-09T00:23:21;1035.4;;;10.6;56.6
74441;BME280;62870;54.692;25.284;2022-09-09T00:33:39;1035.5;;;10.3;56.8
74441;BME280;62870;54.692;25.284;2022-09-09T00:38:23;1035.5;;;10.1;57.5
74441;BME280;62870;54.692;25.284;2022-09-09T00:43:55;1035.5;;;10;58.1
74441;BME280;62870;54.692;25.284;2022-09-09T00:48:54;1035.5;;;10;58.5
74441;BME280;62870;54.692;25.284;2022-09-09T00:58:37;1035.4;;;9.9;58.5
74441;BME280;62870;54.692;25.284;2022-09-09T01:03:53;1035.4;;;9.8;58.5
74441;BME280;62870;54.692;25.284;2022-09-09T01:08:39;1035.5;;;9.7;59
74441;BME280;62870;54.692;25.284;2022-09-09T01:13:22;1035.5;;;9.6;59.8
74441;BME280;62870;54.692;25.284;2022-09-09T01:19:01;1035.5;;;9.6;60.1
74441;BME280;62870;54.692;25.284;2022-09-09T01:24:09;1035.6;;;9.5;60.6
74441;BME280;62870;54.692;25.284;2022-09-09T01:28:59;1035.6;;;9.6;60.2
74441;BME280;62870;54.692;25.284;2022-09-09T01:33:17;1035.5;;;9.5;60
74441;BME280;62870;54.692;25.284;2022-09-09T01:39:01;1035.5;;;9.5;59.9
74441;BME280;62870;54.692;25.284;2022-09-09T01:44:01;1035.5;;;9.3;60.9
74441;BME280;62870;54.692;25.284;2022-09-09T01:48:37;1035.4;;;9.3;61.1
74441;BME280;62870;54.692;25.284;2022-09-09T01:53:18;1035.4;;;9.3;61
74441;BME280;62870;54.692;25.284;2022-09-09T01:58:43;1035.4;;;9.3;60.7
74441;BME280;62870;54.692;25.284;2022-09-09T02:03:23;1035.4;;;9.3;60.5
74441;BME280;62870;54.692;25.284;2022-09-09T02:08:20;1035.4;;;9.2;60.5
74441;BME280;62870;54.692;25.284;2022-09-09T02:13:20;1035.5;;;9.2;60.9
74441;BME280;62870;54.692;25.284;2022-09-09T02:19:19;1035.5;;;9.1;61.3
74441;BME280;62870;54.692;25.284;2022-09-09T02:23:49;1035.4;;;9.1;61.3
74441;BME280;62870;54.692;25.284;2022-09-09T02:28:39;1035.5;;;9.2;61
74441;BME280;62870;54.692;25.284;2022-09-09T02:34:01;1035.5;;;9.2;60.7
74441;BME280;62870;54.692;25.284;2022-09-09T02:38:47;1035.5;;;9.2;60.5
74441;BME280;62870;54.692;25.284;2022-09-09T02:43:51;1035.4;;;9.1;60.8
74441;BME280;62870;54.692;25.284;2022-09-09T02:48:34;1035.4;;;9;61.4
74441;BME280;62870;54.692;25.284;2022-09-09T02:53:21;1035.5;;;8.9;61.7
74441;BME280;62870;54.692;25.284;2022-09-09T02:59:04;1035.6;;;8.8;61.5
74441;BME280;62870;54.692;25.284;2022-09-09T03:03:51;1035.7;;;8.7;61.5
74441;BME280;62870;54.692;25.284;2022-09-09T03:08:31;1035.7;;;8.6;61.7
74441;BME280;62870;54.692;25.284;2022-09-09T03:13:51;1035.7;;;8.4;62.4
74441;BME280;62870;54.692;25.284;2022-09-09T03:18:49;1035.6;;;8.3;63.2
74441;BME280;62870;54.692;25.284;2022-09-09T03:23:39;1035.6;;;8.3;63.3
74441;BME280;62870;54.692;25.284;2022-09-09T03:28:19;1035.6;;;8.3;63.3
74441;BME280;62870;54.692;25.284;2022-09-09T03:34:03;1035.7;;;8.3;62.8
74441;BME280;62870;54.692;25.284;2022-09-09T03:38:27;1035.7;;;8.3;62.7
74441;BME280;62870;54.692;25.284;2022-09-09T03:43:29;1035.7;;;8.3;62.7
74441;BME280;62870;54.692;25.284;2022-09-09T03:49:03;1035.7;;;8.4;62.7
74441;BME280;62870;54.692;25.284;2022-09-09T03:54:01;1035.6;;;8.4;62.6
74441;BME280;62870;54.692;25.284;2022-09-09T03:58:51;1035.6;;;8.4;62.5
74441;BME280;62870;54.692;25.284;2022-09-09T04:03:29;1035.6;;;8.4;62.4
74441;BME280;62870;54.692;25.284;2022-09-09T04:08:27;1035.6;;;8.4;62.1
74441;BME280;62870;54.692;25.284;2022-09-09T04:13:51;1035.6;;;8.6;61.8
74441;BME280;62870;54.692;25.284;2022-09-09T04:19:04;1035.6;;;8.7;61.4
74441;BME280;62870;54.692;25.284;2022-09-09T04:23:28;1035.7;;;8.8;61
74441;BME280;62870;54.692;25.284;2022-09-09T04:28:20;1035.7;;;9;60.8
74441;BME280;62870;54.692;25.284;2022-09-09T04:33:39;1035.8;;;9.2;60.3
74441;BME280;62870;54.692;25.284;2022-09-09T04:38:29;1035.8;;;9.4;59.7
74441;BME280;62870;54.692;25.284;2022-09-09T04:43:27;1035.8;;;9.4;59.2
74441;BME280;62870;54.692;25.284;2022-09-09T04:48:41;1035.8;;;9.3;59.1
74441;BME280;62870;54.692;25.284;2022-09-09T04:53:47;1035.7;;;9.3;59.4
74441;BME280;62870;54.692;25.284;2022-09-09T04:59:05;1035.8;;;9.4;59.1
74441;BME280;62870;54.692;25.284;2022-09-09T05:03:39;1035.8;;;9.5;58.8
74441;BME280;62870;54.692;25.284;2022-09-09T05:09:05;1035.7;;;9.5;58.9
74441;BME280;62870;54.692;25.284;2022-09-09T05:14:05;1035.7;;;9.8;59.6
74441;BME280;62870;54.692;25.284;2022-09-09T05:18:19;1035.7;;;9.9;58.2
74441;BME280;62870;54.692;25.284;2022-09-09T05:23:29;1035.8;;;10;57.7
74441;BME280;62870;54.692;25.284;2022-09-09T05:28:29;1035.9;;;10;57.7
74441;BME280;62870;54.692;25.284;2022-09-09T05:33:55;1035.8;;;10.2;57.7
74441;BME280;62870;54.692;25.284;2022-09-09T05:38:55;1035.8;;;10.3;57.2
74441;BME280;62870;54.692;25.284;2022-09-09T05:43:53;1035.7;;;10.3;56.7
74441;BME280;62870;54.692;25.284;2022-09-09T05:48:53;1035.7;;;10.6;57
74441;BME280;62870;54.692;25.284;2022-09-09T05:53:50;1035.7;;;10.9;56
74441;BME280;62870;54.692;25.284;2022-09-09T05:58:39;1035.7;;;11.1;55.7
74441;BME280;62870;54.692;25.284;2022-09-09T06:03:51;1035.7;;;11.5;55.2
74441;BME280;62870;54.692;25.284;2022-09-09T06:08:19;1035.7;;;11.7;54.8
74441;BME280;62870;54.692;25.284;2022-09-09T06:13:29;1035.7;;;12;54.3
74441;BME280;62870;54.692;25.284;2022-09-09T06:18:49;1035.7;;;12.3;53.1
74441;BME280;62870;54.692;25.284;2022-09-09T06:24:05;1035.7;;;12.5;53
74441;BME280;62870;54.692;25.284;2022-09-09T06:28:53;1035.8;;;12.8;52.7
74441;BME280;62870;54.692;25.284;2022-09-09T06:33:31;1035.8;;;13;52.5
74441;BME280;62870;54.692;25.284;2022-09-09T06:38:39;1035.8;;;13.3;52.7
74441;BME280;62870;54.692;25.284;2022-09-09T06:43:53;1035.8;;;13.6;51.6
74441;BME280;62870;54.692;25.284;2022-09-09T06:49:08;1035.7;;;13.9;50.1
74441;BME280;62870;54.692;25.284;2022-09-09T06:53:29;1035.7;;;14.1;49.9
74441;BME280;62870;54.692;25.284;2022-09-09T06:58:20;1035.6;;;14.3;49.7
74441;BME280;62870;54.692;25.284;2022-09-09T07:03:29;1035.6;;;14.5;49.1
74441;BME280;62870;54.692;25.284;2022-09-09T07:08:19;1035.6;;;14.8;48.4
74441;BME280;62870;54.692;25.284;2022-09-09T07:13:43;1035.6;;;15.3;46.8
74441;BME280;62870;54.692;25.284;2022-09-09T07:18:44;1035.6;;;15.4;44.7
74441;BME280;62870;54.692;25.284;2022-09-09T07:23:52;1035.5;;;15.4;44.5
74441;BME280;62870;54.692;25.284;2022-09-09T07:29:09;1035.5;;;15.3;44.3
74441;BME280;62870;54.692;25.284;2022-09-09T07:33:19;1035.5;;;15.7;44.2
74441;BME280;62870;54.692;25.284;2022-09-09T07:39:09;1035.4;;;15.9;43.9
74441;BME280;62870;54.692;25.284;2022-09-09T07:44:08;1035.3;;;16.4;42.2
74441;BME280;62870;54.692;25.284;2022-09-09T07:48:19;1035.3;;;16.6;40.7
74441;BME280;62870;54.692;25.284;2022-09-09T07:53:29;1035.4;;;16.9;39.5
74441;BME280;62870;54.692;25.284;2022-09-09T07:58:19;1035.3;;;17.1;40
74441;BME280;62870;54.692;25.284;2022-09-09T08:03:44;1035.3;;;17.5;39.8
74441;BME280;62870;54.692;25.284;2022-09-09T08:08:53;1035.4;;;17.5;39.4
74441;BME280;62870;54.692;25.284;2022-09-09T08:13:56;1035.4;;;17.7;38.9
74441;BME280;62870;54.692;25.284;2022-09-09T08:18:56;1035.3;;;17.7;38.4
74441;BME280;62870;54.692;25.284;2022-09-09T08:23:52;1035.3;;;18.2;38.1
74441;BME280;62870;54.692;25.284;2022-09-09T08:28:19;1035.3;;;18.8;37
74441;BME280;62870;54.692;25.284;2022-09-09T08:33:54;1035.3;;;18.8;35.7
74441;BME280;62870;54.692;25.284;2022-09-09T08:39:08;1035.3;;;18.5;35.4
74441;BME280;62870;54.692;25.284;2022-09-09T08:43:29;1035.3;;;18.4;35.2
74441;BME280;62870;54.692;25.284;2022-09-09T08:48:36;1035.4;;;18.4;34.2
74441;BME280;62870;54.692;25.284;2022-09-09T08:54:11;1035.4;;;18.3;34.1
74441;BME280;62870;54.692;25.284;2022-09-09T08:59:00;1035.4;;;18.3;34.5
74441;BME280;62870;54.692;25.284;2022-09-09T09:04:13;1035.4;;;18.6;34.5
74441;BME280;62870;54.692;25.284;2022-09-09T09:08:54;1035.4;;;18.7;33.9
74441;BME280;62870;54.692;25.284;2022-09-09T09:14:14;1035.4;;;18.5;34
74441;BME280;62870;54.692;25.284;2022-09-09T09:19:12;1035.3;;;18.3;34.3
74441;BME280;62870;54.692;25.284;2022-09-09T09:23:42;1035.4;;;18.4;33.8
74441;BME280;62870;54.692;25.284;2022-09-09T09:28:39;1035.3;;;18.2;34.1
74441;BME280;62870;54.692;25.284;2022-09-09T09:33:28;1035.3;;;18.4;35
74441;BME280;62870;54.692;25.284;2022-09-09T09:38:24;1035.3;;;18.5;35
74441;BME280;62870;54.692;25.284;2022-09-09T09:43:53;1035.4;;;18.4;34.5
74441;BME280;62870;54.692;25.284;2022-09-09T09:48:41;1035.4;;;17.9;35
74441;BME280;62870;54.692;25.284;2022-09-09T09:54:22;1035.4;;;17.5;36
74441;BME280;62870;54.692;25.284;2022-09-09T09:58:51;1035.4;;;17.3;36.8
74441;BME280;62870;54.692;25.284;2022-09-09T10:03:49;1035.3;;;17.3;37.5
74441;BME280;62870;54.692;25.284;2022-09-09T10:09:04;1035.3;;;17.2;37.1
74441;BME280;62870;54.692;25.284;2022-09-09T10:13:53;1035.4;;;17;37.9
74441;BME280;62870;54.692;25.284;2022-09-09T10:19:46;1035.3;;;17.1;37.9
74441;BME280;62870;54.692;25.284;2022-09-09T10:24:05;1035.3;;;17.2;38
74441;BME280;62870;54.692;25.284;2022-09-09T10:28:38;1035.3;;;17.4;38.1
74441;BME280;62870;54.692;25.284;2022-09-09T10:34:10;1035.4;;;17.6;37.9
74441;BME280;62870;54.692;25.284;2022-09-09T10:38:53;1035.3;;;17.7;37.9
74441;BME280;62870;54.692;25.284;2022-09-09T10:49:02;1035.1;;;18.5;36.8
74441;BME280;62870;54.692;25.284;2022-09-09T10:53:56;1035.1;;;19.1;36.1
74441;BME280;62870;54.692;25.284;2022-09-09T10:58:39;1035.1;;;19.4;35.3
74441;BME280;62870;54.692;25.284;2022-09-09T11:03:53;1035.2;;;19.5;34.8
74441;BME280;62870;54.692;25.284;2022-09-09T11:09:13;1035.2;;;19.4;33.6
74441;BME280;62870;54.692;25.284;2022-09-09T11:13:22;1035.3;;;19.4;33.6
74441;BME280;62870;54.692;25.284;2022-09-09T11:18:29;1035.3;;;19.5;33.7
74441;BME280;62870;54.692;25.284;2022-09-09T11:24:06;1035.3;;;20.2;33.5
74441;BME280;62870;54.692;25.284;2022-09-09T11:29:09;1035.2;;;20.7;33.1
74441;BME280;62870;54.692;25.284;2022-09-09T11:38:45;1035.2;;;21;31.2
74441;BME280;62870;54.692;25.284;2022-09-09T11:44:16;1035.2;;;20.7;30.7
74441;BME280;62870;54.692;25.284;2022-09-09T11:49:06;1035.2;;;20.6;30.9
74441;BME280;62870;54.692;25.284;2022-09-09T11:53:29;1035.2;;;20.9;31.3
74441;BME280;62870;54.692;25.284;2022-09-09T11:58:53;1035.2;;;21;30.4
74441;BME280;62870;54.692;25.284;2022-09-09T12:03:46;1035.2;;;20.4;30.7
74441;BME280;62870;54.692;25.284;2022-09-09T12:08:22;1035.2;;;20;31.5
74441;BME280;62870;54.692;25.284;2022-09-09T12:13:39;1035.2;;;19.8;30.9
74441;BME280;62870;54.692;25.284;2022-09-09T12:18:41;1035.1;;;19.8;31.2
74441;BME280;62870;54.692;25.284;2022-09-09T12:23:52;1035.1;;;20.1;31.3
74441;BME280;62870;54.692;25.284;2022-09-09T12:28:52;1035;;;20.2;30.4
74441;BME280;62870;54.692;25.284;2022-09-09T12:33:23;1035;;;20;30.1
74441;BME280;62870;54.692;25.284;2022-09-09T12:38:51;1035;;;20.1;30.5
74441;BME280;62870;54.692;25.284;2022-09-09T12:44:02;1035;;;20.3;30.8
74441;BME280;62870;54.692;25.284;2022-09-09T12:49:18;1034.8;;;20.4;30.5
74441;BME280;62870;54.692;25.284;2022-09-09T12:53:22;1034.9;;;20.1;31
74441;BME280;62870;54.692;25.284;2022-09-09T12:58:30;1034.7;;;20.1;31.2
74441;BME280;62870;54.692;25.284;2022-09-09T13:03:20;1034.6;;;19.9;31.2
74441;BME280;62870;54.692;25.284;2022-09-09T13:08:31;1034.6;;;19.8;31.8
74441;BME280;62870;54.692;25.284;2022-09-09T13:13:52;1034.6;;;20.1;31.8
74441;BME280;62870;54.692;25.284;2022-09-09T13:18:55;1034.6;;;20.2;31.7
74441;BME280;62870;54.692;25.284;2022-09-09T13:23:57;1034.6;;;20.3;31.9
74441;BME280;62870;54.692;25.284;2022-09-09T13:28:45;1034.5;;;20.5;32.1
74441;BME280;62870;54.692;25.284;2022-09-09T13:33:51;1034.5;;;20.6;31.8
74441;BME280;62870;54.692;25.284;2022-09-09T13:38:53;1034.4;;;20.5;30.7
74441;BME280;62870;54.692;25.284;2022-09-09T13:43:21;1034.5;;;20.5;31.3
74441;BME280;62870;54.692;25.284;2022-09-09T13:48:30;1034.4;;;20.9;31.1
74441;BME280;62870;54.692;25.284;2022-09-09T13:53:19;1034.4;;;21.4;30.6
74441;BME280;62870;54.692;25.284;2022-09-09T13:59:08;1034.4;;;21.8;29.7
74441;BME280;62870;54.692;25.284;2022-09-09T14:03:54;1034.3;;;22.2;29.4
74441;BME280;62870;54.692;25.284;2022-09-09T14:08:21;1034.3;;;22.8;28
74441;BME280;62870;54.692;25.284;2022-09-09T14:13:19;1034.4;;;22.8;28
74441;BME280;62870;54.692;25.284;2022-09-09T14:19:00;1034.3;;;22.4;28.7
74441;BME280;62870;54.692;25.284;2022-09-09T14:24:10;1034.3;;;22.3;28.9
74441;BME280;62870;54.692;25.284;2022-09-09T14:28:38;1034.3;;;22.3;28.7
74441;BME280;62870;54.692;25.284;2022-09-09T14:33:50;1034.2;;;22.6;28.4
74441;BME280;62870;54.692;25.284;2022-09-09T14:38:32;1034.2;;;22.6;27.8
74441;BME280;62870;54.692;25.284;2022-09-09T14:43:30;1034.2;;;23;28.3
74441;BME280;62870;54.692;25.284;2022-09-09T14:48:44;1034.2;;;22.9;27.6
74441;BME280;62870;54.692;25.284;2022-09-09T14:53:44;1034.2;;;22.7;27.8
74441;BME280;62870;54.692;25.284;2022-09-09T14:58:50;1034.2;;;22.1;28.3
74441;BME280;62870;54.692;25.284;2022-09-09T15:03:55;1034.2;;;21.5;28.6
74441;BME280;62870;54.692;25.284;2022-09-09T15:08:42;1034.2;;;21.1;29.5
74441;BME280;62870;54.692;25.284;2022-09-09T15:14:06;1034.2;;;21.1;29.7
74441;BME280;62870;54.692;25.284;2022-09-09T15:19:08;1034.2;;;21.4;29.6
74441;BME280;62870;54.692;25.284;2022-09-09T15:23:31;1034.1;;;21.6;29.6
74441;BME280;62870;54.692;25.284;2022-09-09T15:28:31;1034.1;;;21.8;29.8
74441;BME280;62870;54.692;25.284;2022-09-09T15:33:20;1034.1;;;22;29.5
74441;BME280;62870;54.692;25.284;2022-09-09T15:39:07;1034.1;;;22.7;28.9
74441;BME280;62870;54.692;25.284;2022-09-09T15:43:53;1034.2;;;23.1;27.5
74441;BME280;62870;54.692;25.284;2022-09-09T15:49:08;1034.2;;;23.2;27.9
74441;BME280;62870;54.692;25.284;2022-09-09T15:53:56;1034.2;;;22.4;28.8
74441;BME280;62870;54.692;25.284;2022-09-09T15:58:46;1034.2;;;21.6;29.6
74441;BME280;62870;54.692;25.284;2022-09-09T16:03:38;1034.1;;;21.9;29.2
74441;BME280;62870;54.692;25.284;2022-09-09T16:08:52;1034.2;;;22.5;28.6
74441;BME280;62870;54.692;25.284;2022-09-09T16:13:20;1034.2;;;22.4;28.6
74441;BME280;62870;54.692;25.284;2022-09-09T16:18:20;1034.3;;;21.3;30.3
74441;BME280;62870;54.692;25.284;2022-09-09T16:23:30;1034.3;;;20.5;31.4
74441;BME280;62870;54.692;25.284;2022-09-09T16:29:06;1034.3;;;20.2;31.8
74441;BME280;62870;54.692;25.284;2022-09-09T16:33:54;1034.3;;;20.3;32.2
74441;BME280;62870;54.692;25.284;2022-09-09T16:38:30;1034.4;;;20.1;32.9
74441;BME280;62870;54.692;25.284;2022-09-09T16:43:20;1034.4;;;19.5;33.6
74441;BME280;62870;54.692;25.284;2022-09-09T16:48:56;1034.3;;;19.1;34.1
74441;BME280;62870;54.692;25.284;2022-09-09T16:54:06;1034.4;;;18.9;34.6
74441;BME280;62870;54.692;25.284;2022-09-09T16:58:30;1034.3;;;18.3;36
74441;BME280;62870;54.692;25.284;2022-09-09T17:03:20;1034.4;;;18;36.3
74441;BME280;62870;54.692;25.284;2022-09-09T17:08:30;1034.4;;;17.7;36.3
74441;BME280;62870;54.692;25.284;2022-09-09T17:13:31;1034.5;;;17.3;37
74441;BME280;62870;54.692;25.284;2022-09-09T17:18:44;1034.6;;;17.2;38.2
74441;BME280;62870;54.692;25.284;2022-09-09T17:23:32;1034.7;;;17.2;38.1
74441;BME280;62870;54.692;25.284;2022-09-09T17:28:52;1034.7;;;17;38.1
74441;BME280;62870;54.692;25.284;2022-09-09T17:34:07;1034.7;;;16.9;38.2
74441;BME280;62870;54.692;25.284;2022-09-09T17:38:43;1034.7;;;16.8;38.8
74441;BME280;62870;54.692;25.284;2022-09-09T17:43:54;1034.7;;;16.8;39.6
74441;BME280;62870;54.692;25.284;2022-09-09T17:48:55;1034.7;;;16.6;39.8
74441;BME280;62870;54.692;25.284;2022-09-09T17:54:09;1034.7;;;16.6;40.1
74441;BME280;62870;54.692;25.284;2022-09-09T17:58:30;1034.7;;;16.4;39.7
74441;BME280;62870;54.692;25.284;2022-09-09T18:04:01;1034.6;;;16.2;39.7
74441;BME280;62870;54.692;25.284;2022-09-09T18:09:11;1034.6;;;16.1;40.4
74441;BME280;62870;54.692;25.284;2022-09-09T18:13:55;1034.6;;;16;41.5
74441;BME280;62870;54.692;25.284;2022-09-09T18:18:44;1034.6;;;16;41.5
74441;BME280;62870;54.692;25.284;2022-09-09T18:23:46;1034.6;;;16;41.2
74441;BME280;62870;54.692;25.284;2022-09-09T18:28:55;1034.7;;;16.1;41.1
74441;BME280;62870;54.692;25.284;2022-09-09T18:33:38;1034.8;;;15.7;40.8
74441;BME280;62870;54.692;25.284;2022-09-09T18:38:36;1034.8;;;15.3;41.2
74441;BME280;62870;54.692;25.284;2022-09-09T18:44:10;1034.8;;;14.9;41.9
74441;BME280;62870;54.692;25.284;2022-09-09T18:48:20;1034.8;;;14.5;43
74441;BME280;62870;54.692;25.284;2022-09-09T18:53:30;1034.8;;;14.2;43.5
74441;BME280;62870;54.692;25.284;2022-09-09T18:59:06;1034.7;;;14.1;43.5
74441;BME280;62870;54.692;25.284;2022-09-09T19:04:06;1034.7;;;14;43.3
74441;BME280;62870;54.692;25.284;2022-09-09T19:09:04;1034.6;;;13.9;43.7
74441;BME280;62870;54.692;25.284;2022-09-09T19:13:42;1034.7;;;13.8;45.5
74441;BME280;62870;54.692;25.284;2022-09-09T19:19:05;1034.7;;;13.7;46.1
74441;BME280;62870;54.692;25.284;2022-09-09T19:24:10;1034.7;;;13.7;45.7
74441;BME280;62870;54.692;25.284;2022-09-09T19:28:38;1034.7;;;13.8;44.8
74441;BME280;62870;54.692;25.284;2022-09-09T19:33:30;1034.7;;;13.6;44.6
74441;BME280;62870;54.692;25.284;2022-09-09T19:38:28;1034.8;;;13.5;44.7
74441;BME280;62870;54.692;25.284;2022-09-09T19:43:20;1034.8;;;13.4;45.7
74441;BME280;62870;54.692;25.284;2022-09-09T19:48:40;1034.9;;;13.4;45.5
74441;BME280;62870;54.692;25.284;2022-09-09T19:53:20;1034.9;;;13.3;45.5
74441;BME280;62870;54.692;25.284;2022-09-09T19:59:08;1034.9;;;13.3;45.2
74441;BME280;62870;54.692;25.284;2022-09-09T20:04:08;1034.9;;;13.2;45.2
74441;BME280;62870;54.692;25.284;2022-09-09T20:08:43;1034.9;;;13.2;45.1
74441;BME280;62870;54.692;25.284;2022-09-09T20:14:08;1034.9;;;13.1;45.7
74441;BME280;62870;54.692;25.284;2022-09-09T20:18:53;1034.9;;;12.9;46.4
74441;BME280;62870;54.692;25.284;2022-09-09T20:24:09;1034.9;;;12.8;46.5
74441;BME280;62870;54.692;25.284;2022-09-09T20:28:18;1034.9;;;12.8;46.3
74441;BME280;62870;54.692;25.284;2022-09-09T20:33:18;1034.8;;;12.7;46.4
74441;BME280;62870;54.692;25.284;2022-09-09T20:39:09;1034.8;;;12.6;46.4
74441;BME280;62870;54.692;25.284;2022-09-09T20:43:53;1034.8;;;12.6;46.7
74441;BME280;62870;54.692;25.284;2022-09-09T20:48:42;1034.8;;;12.5;47.4
74441;BME280;62870;54.692;25.284;2022-09-09T20:54:01;1034.8;;;12.5;47.5
74441;BME280;62870;54.692;25.284;2022-09-09T20:58:54;1034.7;;;12.4;47.5
74441;BME280;62870;54.692;25.284;2022-09-09T21:03:30;1034.7;;;12.4;47.4
74441;BME280;62870;54.692;25.284;2022-09-09T21:08:46;1034.8;;;12.4;47.2
74441;BME280;62870;54.692;25.284;2022-09-09T21:14:06;1034.8;;;12.3;47.8
74441;BME280;62870;54.692;25.284;2022-09-09T21:18:20;1034.7;;;12.2;48.1
74441;BME280;62870;54.692;25.284;2022-09-09T21:23:30;1034.7;;;12.1;48.6
74441;BME280;62870;54.692;25.284;2022-09-09T21:29:08;1034.7;;;12.2;48.3
74441;BME280;62870;54.692;25.284;2022-09-09T21:34:06;1034.6;;;12.2;48.2
74441;BME280;62870;54.692;25.284;2022-09-09T21:39:06;1034.6;;;12.2;48.1
74441;BME280;62870;54.692;25.284;2022-09-09T21:43:44;1034.6;;;12.1;48.3
74441;BME280;62870;54.692;25.284;2022-09-09T21:49:08;1034.5;;;11.9;49.3
74441;BME280;62870;54.692;25.284;2022-09-09T21:54:06;1034.5;;;11.7;49.8
74441;BME280;62870;54.692;25.284;2022-09-09T21:58:38;1034.5;;;11.7;49.8
74441;BME280;62870;54.692;25.284;2022-09-09T22:03:38;1034.4;;;11.7;49.6
74441;BME280;62870;54.692;25.284;2022-09-09T22:08:30;1034.4;;;11.6;49.5
74441;BME280;62870;54.692;25.284;2022-09-09T22:13:20;1034.4;;;11.6;50.1
74441;BME280;62870;54.692;25.284;2022-09-09T22:18:20;1034.4;;;11.4;50.8
74441;BME280;62870;54.692;25.284;2022-09-09T22:23:42;1034.3;;;11.4;51.2
74441;BME280;62870;54.692;25.284;2022-09-09T22:28:52;1034.2;;;11.4;50.8
74441;BME280;62870;54.692;25.284;2022-09-09T22:33:44;1034.2;;;11.4;50.5
74441;BME280;62870;54.692;25.284;2022-09-09T22:39:08;1034.3;;;11.4;50.4
74441;BME280;62870;54.692;25.284;2022-09-09T22:43:42;1034.3;;;11.4;50.5
74441;BME280;62870;54.692;25.284;2022-09-09T22:48:50;1034.4;;;11.4;50.7
74441;BME280;62870;54.692;25.284;2022-09-09T22:54:06;1034.4;;;11.3;50.9
74441;BME280;62870;54.692;25.284;2022-09-09T22:58:36;1034.4;;;11.4;50.7
74441;BME280;62870;54.692;25.284;2022-09-09T23:03:30;1034.5;;;11.3;50.8
74441;BME280;62870;54.692;25.284;2022-09-09T23:08:29;1034.5;;;11.4;50.8
74441;BME280;62870;54.692;25.284;2022-09-09T23:14:05;1034.4;;;11.3;51.8
74441;BME280;62870;54.692;25.284;2022-09-09T23:18:54;1034.5;;;11.3;53.6
74441;BME280;62870;54.692;25.284;2022-09-09T23:23:58;1034.5;;;11.2;54.3
74441;BME280;62870;54.692;25.284;2022-09-09T23:28:58;1034.5;;;11.1;54.1
74441;BME280;62870;54.692;25.284;2022-09-09T23:33:34;1034.5;;;10.9;54.2
74441;BME280;62870;54.692;25.284;2022-09-09T23:38:28;1034.5;;;10.8;54.2
74441;BME280;62870;54.692;25.284;2022-09-09T23:43:38;1034.5;;;10.6;54.5
74441;BME280;62870;54.692;25.284;2022-09-09T23:48:28;1034.4;;;10.5;56.2
74441;BME280;62870;54.692;25.284;2022-09-09T23:53:30;1034.3;;;10.3;56.8
74441;BME280;62870;54.692;25.284;2022-09-09T23:58:54;1034.3;;;10.2;57.2
